Time;durP1;ratioP1;P1;durP2;ratioP2;P2;SDS_P1;SDS_P2;PMS_P1;PMS_P2;Temp;Humidity;BMP_temperature;BMP_pressure;BME280_temperature;BME280_humidity;BME280_pressure;Samples;Min_cycle;Max_cycle;Signal;HPM_P1;HPM_P2
2023/01/11 05:02:37;;;;;;;1.30;0.98;;;7.60;99.90;;;;;;4887821;29;20328;-65
2023/01/11 05:05:05;;;;;;;0.43;0.43;;;7.60;99.90;;;;;;4894196;29;20666;-65
2023/01/11 05:07:32;;;;;;;0.45;0.45;;;7.60;99.90;;;;;;4894433;29;20229;-66
2023/01/11 05:09:59;;;;;;;0.60;0.60;;;7.60;99.90;;;;;;4901535;29;20534;-66
2023/01/11 05:12:25;;;;;;;0.32;0.32;;;7.60;99.90;;;;;;4877135;29;20226;-66
2023/01/11 05:14:52;;;;;;;0.85;0.75;;;7.60;99.90;;;;;;4918270;23;20236;-65
2023/01/11 05:17:19;;;;;;;0.10;0.10;;;7.60;99.90;;;;;;4923715;29;20204;-65
2023/01/11 05:19:47;;;;;;;0.43;0.43;;;7.70;99.90;;;;;;4932750;29;20204;-65
2023/01/11 05:22:13;;;;;;;0.50;0.50;;;7.70;99.90;;;;;;4920234;29;20204;-65
2023/01/11 05:24:40;;;;;;;0.40;0.40;;;7.70;99.90;;;;;;4914882;29;20630;-65
2023/01/11 05:27:08;;;;;;;1.17;1.00;;;7.70;99.90;;;;;;4904789;29;20228;-65
2023/01/11 05:29:34;;;;;;;0.98;0.98;;;7.70;99.90;;;;;;4914031;29;20310;-65
2023/01/11 05:32:01;;;;;;;0.60;0.60;;;7.70;99.90;;;;;;4898219;29;20221;-65
2023/01/11 05:34:28;;;;;;;0.68;0.43;;;7.70;99.90;;;;;;4902751;29;20235;-65
2023/01/11 05:36:56;;;;;;;0.30;0.30;;;7.70;99.90;;;;;;4903561;29;20306;-64
2023/01/11 05:39:23;;;;;;;0.68;0.68;;;7.70;99.90;;;;;;4909037;29;20216;-64
2023/01/11 05:41:49;;;;;;;0.63;0.63;;;7.70;99.90;;;;;;4901653;29;20221;-64
2023/01/11 05:47:00;;;;;;;0.57;0.52;;;7.70;99.90;;;;;;4894362;29;20223;-64
2023/01/11 05:49:27;;;;;;;0.73;0.73;;;7.70;99.90;;;;;;4911812;29;20205;-64
2023/01/11 05:51:54;;;;;;;0.30;0.30;;;7.70;99.90;;;;;;4901258;29;20217;-65
2023/01/11 05:54:22;;;;;;;0.90;0.88;;;7.70;99.90;;;;;;4911191;29;20530;-65
2023/01/11 05:56:49;;;;;;;0.30;0.30;;;7.80;99.90;;;;;;4913265;29;20209;-65
2023/01/11 05:59:15;;;;;;;0.45;0.45;;;7.70;99.90;;;;;;4917565;29;20319;-64
2023/01/11 06:01:42;;;;;;;0.35;0.35;;;7.70;99.90;;;;;;4905118;29;20217;-65
2023/01/11 06:04:09;;;;;;;0.90;0.82;;;7.80;99.90;;;;;;4914219;29;20220;-64
2023/01/11 06:06:36;;;;;;;0.40;0.40;;;7.80;99.90;;;;;;4906583;29;20213;-65
2023/01/11 06:09:03;;;;;;;0.57;0.57;;;7.80;99.90;;;;;;4905906;29;20660;-65
2023/01/11 06:11:31;;;;;;;0.35;0.35;;;7.80;99.90;;;;;;4912717;29;20235;-64
2023/01/11 06:13:58;;;;;;;0.45;0.45;;;7.80;99.90;;;;;;4898261;29;20205;-65
2023/01/11 06:16:24;;;;;;;0.65;0.65;;;7.80;99.90;;;;;;4910311;29;20210;-66
2023/01/11 06:18:52;;;;;;;0.52;0.52;;;7.70;99.90;;;;;;4897687;29;20576;-66
2023/01/11 06:21:20;;;;;;;0.30;0.30;;;7.80;99.90;;;;;;4905665;29;20215;-66
2023/01/11 06:23:49;;;;;;;0.32;0.32;;;7.80;99.90;;;;;;4898664;29;20646;-66
2023/01/11 06:26:18;;;;;;;0.60;0.60;;;7.80;99.90;;;;;;4905758;29;20628;-66
2023/01/11 06:28:46;;;;;;;0.20;0.20;;;7.80;99.90;;;;;;4907132;29;20237;-66
2023/01/11 06:31:13;;;;;;;0.30;0.30;;;7.90;99.90;;;;;;4911219;29;20237;-66
2023/01/11 06:33:40;;;;;;;1.30;1.30;;;7.90;99.90;;;;;;4906315;29;20220;-66
2023/01/11 06:36:09;;;;;;;3.55;3.25;;;7.90;99.90;;;;;;4908045;29;20255;-65
2023/01/11 06:38:36;;;;;;;9.77;4.75;;;7.90;99.90;;;;;;4915779;29;20206;-65
2023/01/11 06:41:06;;;;;;;27.42;17.00;;;7.90;99.90;;;;;;4913154;29;20226;-65
2023/01/11 06:43:33;;;;;;;4.43;4.07;;;7.90;99.90;;;;;;4913119;29;20222;-64
2023/01/11 06:46:01;;;;;;;2.72;2.50;;;8.00;99.90;;;;;;4900425;29;20235;-65
2023/01/11 06:48:28;;;;;;;0.70;0.70;;;8.00;99.90;;;;;;4911436;29;20241;-65
2023/01/11 06:50:56;;;;;;;7.32;6.22;;;8.00;99.90;;;;;;4903511;29;20246;-66
2023/01/11 06:53:24;;;;;;;4.18;3.22;;;8.00;99.90;;;;;;4910905;29;20225;-65
2023/01/11 06:55:51;;;;;;;1.20;1.20;;;8.00;99.90;;;;;;4907676;29;20233;-65
2023/01/11 06:58:18;;;;;;;11.02;6.47;;;8.00;99.90;;;;;;4903995;29;20264;-66
2023/01/11 07:00:45;;;;;;;2.03;2.03;;;8.00;99.90;;;;;;4911588;29;20212;-66
2023/01/11 07:03:13;;;;;;;13.23;8.80;;;8.00;99.90;;;;;;4910528;29;20209;-64
2023/01/11 07:05:41;;;;;;;1.17;1.08;;;8.00;99.90;;;;;;4909751;29;20233;-66
2023/01/11 07:08:08;;;;;;;16.77;7.75;;;8.00;99.90;;;;;;4911381;29;20232;-66
2023/01/11 07:10:34;;;;;;;8.45;5.22;;;8.10;99.90;;;;;;4898335;29;20213;-66
2023/01/11 07:13:01;;;;;;;3.03;1.75;;;8.10;99.90;;;;;;4916095;29;20220;-65
2023/01/11 07:15:29;;;;;;;8.98;4.65;;;8.10;99.90;;;;;;4903174;29;20330;-65
2023/01/11 07:17:56;;;;;;;1.10;1.10;;;8.10;99.90;;;;;;4909644;29;20275;-65
2023/01/11 07:20:25;;;;;;;9.05;7.28;;;8.10;99.90;;;;;;4892340;29;20276;-65
2023/01/11 07:22:52;;;;;;;5.07;4.68;;;8.10;99.90;;;;;;4899421;29;20222;-65
2023/01/11 07:25:19;;;;;;;2.45;2.25;;;8.10;99.90;;;;;;4893069;29;20241;-65
2023/01/11 07:27:45;;;;;;;0.88;0.88;;;8.10;99.90;;;;;;4911045;29;20259;-64
2023/01/11 07:30:13;;;;;;;9.88;5.07;;;8.10;99.90;;;;;;4892665;29;20220;-66
2023/01/11 07:32:40;;;;;;;5.38;4.47;;;8.20;99.90;;;;;;4908083;29;20209;-65
2023/01/11 07:35:07;;;;;;;7.22;4.43;;;8.10;99.90;;;;;;4907427;29;20553;-65
2023/01/11 07:37:40;;;;;;;2.83;2.65;;;8.20;99.90;;;;;;4904181;29;20219;-65
2023/01/11 07:40:08;;;;;;;2.67;2.58;;;8.20;99.90;;;;;;4909281;29;20236;-65
2023/01/11 07:45:19;;;;;;;3.33;3.13;;;8.20;99.90;;;;;;4910192;29;20236;-65
2023/01/11 07:47:49;;;;;;;4.65;3.05;;;8.20;99.90;;;;;;4892565;29;20292;-65
2023/01/11 07:50:16;;;;;;;1.15;1.15;;;8.20;99.90;;;;;;4895518;29;20218;-65
2023/01/11 07:52:49;;;;;;;1.50;1.50;;;8.30;99.90;;;;;;4900312;29;20305;-65
2023/01/11 07:55:15;;;;;;;1.05;1.05;;;8.20;99.90;;;;;;4896056;29;20235;-65
2023/01/11 07:57:42;;;;;;;1.95;1.75;;;8.30;99.90;;;;;;4898140;29;20213;-65
2023/01/11 08:00:10;;;;;;;1.20;1.20;;;8.30;99.90;;;;;;4906598;29;20213;-65
2023/01/11 08:02:37;;;;;;;1.15;1.15;;;8.30;99.90;;;;;;4907507;29;20217;-66
2023/01/11 08:05:04;;;;;;;1.73;1.08;;;8.30;99.90;;;;;;4916658;29;20749;-65
2023/01/11 08:07:30;;;;;;;2.28;2.13;;;8.30;99.90;;;;;;4900091;29;20217;-65
2023/01/11 08:09:58;;;;;;;0.73;0.73;;;8.30;99.90;;;;;;4907498;29;20210;-65
2023/01/11 08:15:12;;;;;;;0.82;0.70;;;8.40;99.90;;;;;;4894639;29;20240;-66
2023/01/11 08:17:39;;;;;;;0.65;0.65;;;8.40;99.90;;;;;;4894739;29;20274;-65
2023/01/11 08:20:06;;;;;;;0.60;0.60;;;8.40;99.90;;;;;;4901007;29;20230;-65
2023/01/11 08:22:33;;;;;;;0.43;0.43;;;8.40;99.90;;;;;;4900619;29;20221;-65
2023/01/11 08:25:01;;;;;;;0.75;0.75;;;8.40;99.90;;;;;;4905690;29;20236;-65
2023/01/11 08:27:28;;;;;;;0.90;0.85;;;8.50;99.90;;;;;;4906925;29;20572;-66
2023/01/11 08:29:55;;;;;;;0.55;0.55;;;8.50;99.90;;;;;;4894850;29;20237;-66
2023/01/11 08:32:21;;;;;;;0.68;0.68;;;8.50;99.90;;;;;;4906872;29;20672;-66
2023/01/11 08:34:48;;;;;;;2.05;0.88;;;8.50;99.90;;;;;;4909282;29;20245;-66
2023/01/11 08:37:15;;;;;;;1.38;1.30;;;8.50;99.90;;;;;;4902810;29;20217;-66
2023/01/11 08:39:42;;;;;;;1.50;1.50;;;8.50;99.90;;;;;;4902330;29;20217;-66
2023/01/11 08:42:10;;;;;;;1.80;1.70;;;8.60;99.90;;;;;;4901706;29;20248;-66
2023/01/11 08:44:36;;;;;;;0.60;0.60;;;8.60;99.90;;;;;;4902090;29;20245;-66
2023/01/11 08:47:03;;;;;;;0.95;0.95;;;8.60;99.90;;;;;;4901203;29;20215;-66
2023/01/11 08:49:30;;;;;;;0.88;0.88;;;8.60;99.90;;;;;;4898374;29;20238;-66
2023/01/11 08:51:57;;;;;;;1.10;1.10;;;8.60;99.90;;;;;;4906977;29;20205;-66
2023/01/11 08:54:24;;;;;;;1.75;1.20;;;8.70;99.90;;;;;;4902879;29;20316;-66
2023/01/11 08:56:51;;;;;;;0.68;0.68;;;8.60;99.90;;;;;;4891971;29;20217;-66
2023/01/11 08:59:22;;;;;;;0.73;0.70;;;8.60;99.90;;;;;;4907435;29;20206;-66
2023/01/11 09:01:49;;;;;;;1.27;0.45;;;8.70;99.90;;;;;;4899663;29;20215;-66
2023/01/11 09:04:19;;;;;;;1.00;1.00;;;8.70;99.90;;;;;;4900481;29;20591;-66
2023/01/11 09:06:49;;;;;;;0.90;0.90;;;8.70;99.90;;;;;;4894633;29;20368;-66
2023/01/11 09:09:23;;;;;;;7.97;2.35;;;8.80;99.90;;;;;;4909385;29;20233;-66
2023/01/11 09:11:57;;;;;;;6.30;3.60;;;8.80;99.90;;;;;;4883461;29;20226;-66
2023/01/11 09:14:29;;;;;;;16.80;8.10;;;8.80;99.90;;;;;;4896380;29;20755;-66
2023/01/11 09:17:02;;;;;;;8.27;6.63;;;8.80;99.90;;;;;;4905948;29;20210;-66
2023/01/11 09:19:32;;;;;;;3.58;3.38;;;8.80;99.90;;;;;;4897076;29;20278;-66
2023/01/11 09:22:04;;;;;;;3.63;3.22;;;8.80;99.90;;;;;;4899109;29;20283;-66
2023/01/11 09:24:31;;;;;;;16.45;10.48;;;8.80;99.90;;;;;;4894642;29;20234;-65
2023/01/11 09:26:59;;;;;;;10.57;5.35;;;8.80;99.90;;;;;;4891342;29;20323;-65
2023/01/11 09:29:28;;;;;;;6.82;3.47;;;8.90;99.90;;;;;;4897806;29;20280;-65
2023/01/11 09:31:55;;;;;;;2.47;2.28;;;8.90;99.90;;;;;;4905076;29;20236;-65
2023/01/11 09:34:24;;;;;;;5.15;4.75;;;8.90;99.90;;;;;;4904449;29;20237;-66
2023/01/11 09:36:53;;;;;;;3.78;2.30;;;8.90;99.90;;;;;;4907541;29;20305;-65
2023/01/11 09:39:24;;;;;;;1.25;1.25;;;8.90;99.90;;;;;;4902458;29;20245;-66
2023/01/11 09:42:25;;;;;;;1.48;1.42;;;8.90;99.90;;;;;;4901156;29;20594;-66
2023/01/11 09:44:58;;;;;;;1.30;1.30;;;8.90;99.90;;;;;;4901038;29;20674;-65
2023/01/11 09:47:38;;;;;;;1.08;1.02;;;8.90;99.90;;;;;;4912110;29;20851;-66
2023/01/11 09:50:20;;;;;;;1.00;1.00;;;9.00;99.90;;;;;;4909947;29;20232;-65
2023/01/11 09:53:02;;;;;;;0.50;0.50;;;9.00;99.90;;;;;;4896320;29;20210;-66
2023/01/11 09:55:42;;;;;;;0.68;0.68;;;9.00;99.90;;;;;;4898555;29;20234;-66
2023/01/11 09:58:52;;;;;;;0.85;0.85;;;9.00;99.90;;;;;;4902401;29;20293;-66
2023/01/11 10:01:28;;;;;;;0.80;0.80;;;9.00;99.90;;;;;;4897197;29;20302;-66
2023/01/11 10:04:36;;;;;;;0.40;0.40;;;9.00;99.90;;;;;;4899113;29;20770;-65
2023/01/11 10:07:23;;;;;;;0.30;0.30;;;9.10;99.90;;;;;;4855445;29;20291;-65
2023/01/11 10:10:07;;;;;;;0.90;0.80;;;9.10;99.90;;;;;;4901094;29;20574;-65
2023/01/11 10:12:42;;;;;;;0.75;0.75;;;9.10;99.90;;;;;;4890535;29;20209;-65
2023/01/11 10:15:19;;;;;;;0.73;0.43;;;9.10;99.90;;;;;;4913103;29;20648;-65
2023/01/11 10:18:05;;;;;;;1.10;0.60;;;9.10;99.90;;;;;;4896921;29;20220;-65
2023/01/11 10:20:44;;;;;;;12.10;0.70;;;9.10;99.90;;;;;;4912234;29;20219;-65
2023/01/11 10:23:24;;;;;;;0.57;0.57;;;9.10;99.90;;;;;;4903862;29;20313;-66
2023/01/11 10:26:00;;;;;;;0.60;0.60;;;9.10;99.90;;;;;;4901575;29;20739;-66
2023/01/11 10:28:34;;;;;;;0.93;0.93;;;9.10;99.90;;;;;;4895157;29;20269;-65
2023/01/11 10:31:27;;;;;;;1.75;1.65;;;9.10;99.90;;;;;;4902842;29;20210;-65
2023/01/11 10:34:14;;;;;;;16.45;10.50;;;9.10;99.90;;;;;;4908106;29;20236;-65
2023/01/11 10:37:15;;;;;;;14.68;6.45;;;9.20;99.90;;;;;;4905010;29;20207;-64
2023/01/11 10:40:14;;;;;;;25.75;16.73;;;9.20;99.90;;;;;;4908081;29;20210;-65
2023/01/11 10:42:54;;;;;;;1.05;1.00;;;9.20;99.90;;;;;;4902673;29;20302;-65
2023/01/11 10:45:31;;;;;;;1.00;1.00;;;9.20;99.90;;;;;;4907058;29;20231;-65
2023/01/11 10:48:13;;;;;;;0.73;0.73;;;9.20;99.90;;;;;;4896484;29;20222;-65
2023/01/11 10:50:50;;;;;;;7.05;4.88;;;9.20;99.90;;;;;;4902159;29;20233;-66
2023/01/11 10:53:28;;;;;;;4.28;3.88;;;9.20;99.90;;;;;;4893468;29;20309;-65
2023/01/11 10:56:05;;;;;;;8.20;5.93;;;9.20;99.90;;;;;;4901070;29;20755;-65
2023/01/11 10:58:49;;;;;;;7.20;6.38;;;9.20;99.90;;;;;;4908022;29;20208;-66
2023/01/11 11:01:27;;;;;;;2.40;2.20;;;9.20;99.90;;;;;;4908823;29;20603;-65
2023/01/11 11:04:17;;;;;;;0.32;0.32;;;9.30;99.90;;;;;;4904951;29;20228;-66
2023/01/11 11:06:55;;;;;;;0.90;0.90;;;9.30;99.90;;;;;;4896784;29;20209;-65
2023/01/11 11:09:33;;;;;;;8.48;6.43;;;9.30;99.90;;;;;;4903977;29;20325;-65
2023/01/11 11:12:08;;;;;;;9.30;8.43;;;9.30;99.90;;;;;;4913209;29;20217;-65
2023/01/11 11:14:42;;;;;;;5.90;3.97;;;9.40;99.90;;;;;;4909097;29;20332;-66
2023/01/11 11:17:17;;;;;;;3.13;2.60;;;9.40;99.90;;;;;;4916394;29;20308;-65
2023/01/11 11:19:47;;;;;;;1.00;1.00;;;9.30;99.90;;;;;;4901258;29;20200;-66
2023/01/11 11:22:15;;;;;;;3.80;2.08;;;9.40;99.90;;;;;;4906050;29;20205;-66
2023/01/11 11:24:45;;;;;;;6.90;6.30;;;9.30;99.90;;;;;;4936032;23;20233;-68
2023/01/11 11:27:19;;;;;;;11.15;9.60;;;9.30;99.90;;;;;;4935135;29;20220;-68
2023/01/11 11:29:51;;;;;;;4.07;3.40;;;9.30;99.90;;;;;;4919875;29;20244;-68
2023/01/11 11:32:23;;;;;;;3.67;3.10;;;9.30;99.90;;;;;;4923387;29;20224;-68
2023/01/11 11:34:51;;;;;;;9.60;5.75;;;9.30;99.90;;;;;;4910197;29;20240;-68
2023/01/11 11:37:31;;;;;;;12.75;8.55;;;9.30;99.90;;;;;;4909972;29;20212;-67
2023/01/11 11:39:58;;;;;;;3.80;2.95;;;9.30;99.90;;;;;;4899143;29;20840;-68
2023/01/11 11:42:25;;;;;;;4.97;3.70;;;9.30;99.90;;;;;;4903014;29;20220;-68
2023/01/11 11:45:14;;;;;;;1.95;1.73;;;9.30;99.90;;;;;;4901688;29;20239;-68
2023/01/11 11:47:42;;;;;;;8.82;1.92;;;9.30;99.90;;;;;;4907107;29;20227;-68
2023/01/11 11:50:25;;;;;;;3.88;3.42;;;9.30;99.90;;;;;;4900561;29;20227;-68
2023/01/11 11:53:00;;;;;;;1.48;1.42;;;9.30;99.90;;;;;;4904880;29;20223;-68
2023/01/11 11:55:29;;;;;;;7.50;2.65;;;9.30;99.90;;;;;;4902960;29;20233;-68
2023/01/11 11:57:58;;;;;;;6.85;5.93;;;9.30;99.90;;;;;;4904371;29;20208;-68
2023/01/11 12:00:29;;;;;;;2.30;2.10;;;9.30;99.90;;;;;;4899174;29;20209;-68
2023/01/11 12:02:59;;;;;;;1.73;1.63;;;9.30;99.90;;;;;;4903678;29;20210;-68
2023/01/11 12:05:26;;;;;;;1.05;1.00;;;9.30;99.90;;;;;;4905188;29;20233;-68
2023/01/11 12:07:55;;;;;;;0.75;0.52;;;9.30;99.90;;;;;;4905119;29;20666;-68
2023/01/11 12:10:24;;;;;;;0.80;0.80;;;9.20;99.90;;;;;;4897961;29;20239;-68
2023/01/11 12:12:53;;;;;;;1.52;1.42;;;9.20;99.90;;;;;;4913121;29;20218;-67
2023/01/11 12:15:23;;;;;;;1.52;1.45;;;9.20;99.90;;;;;;4908337;29;20233;-69
2023/01/11 12:17:50;;;;;;;5.70;4.43;;;9.20;99.90;;;;;;4910423;29;20220;-68
2023/01/11 12:20:31;;;;;;;2.67;1.70;;;9.20;99.90;;;;;;4909951;29;20555;-68
2023/01/11 12:23:18;;;;;;;1.95;1.63;;;9.20;99.90;;;;;;4911231;29;20238;-68
2023/01/11 12:26:14;;;;;;;5.68;4.50;;;9.20;99.90;;;;;;4899078;29;20230;-68
2023/01/11 12:29:20;;;;;;;5.20;4.65;;;9.20;99.90;;;;;;4904312;29;20210;-67
2023/01/11 12:32:02;;;;;;;1.10;1.10;;;9.20;99.90;;;;;;4906863;29;20588;-69
2023/01/11 12:34:41;;;;;;;0.70;0.70;;;9.10;99.90;;;;;;4904820;29;20241;-69
2023/01/11 12:37:22;;;;;;;1.73;0.88;;;9.10;99.90;;;;;;4905690;29;20662;-68
2023/01/11 12:39:59;;;;;;;3.45;2.70;;;9.10;99.90;;;;;;4901460;29;20295;-68
2023/01/11 12:42:42;;;;;;;1.67;1.58;;;9.10;99.90;;;;;;4911954;29;20213;-68
2023/01/11 12:45:19;;;;;;;1.17;1.17;;;9.10;99.90;;;;;;4904660;29;20228;-68
2023/01/11 12:48:14;;;;;;;3.78;2.88;;;9.10;99.90;;;;;;4899249;29;20312;-67
2023/01/11 12:50:55;;;;;;;2.22;1.95;;;9.10;99.90;;;;;;4905651;29;20233;-69
2023/01/11 12:53:34;;;;;;;4.63;2.25;;;9.10;99.90;;;;;;4907009;29;20224;-69
2023/01/11 12:56:24;;;;;;;3.40;3.20;;;9.10;99.90;;;;;;4904137;29;20216;-69
2023/01/11 12:58:58;;;;;;;2.47;2.28;;;9.10;99.90;;;;;;4887203;29;20222;-68
2023/01/11 13:01:37;;;;;;;7.72;5.78;;;9.10;99.90;;;;;;4912035;29;20678;-69
2023/01/11 13:04:30;;;;;;;4.13;2.30;;;9.10;99.90;;;;;;4907724;29;20259;-69
2023/01/11 13:07:06;;;;;;;1.05;1.05;;;9.10;99.90;;;;;;4895693;29;20673;-68
2023/01/11 13:09:43;;;;;;;0.90;0.90;;;9.10;99.90;;;;;;4901702;29;20234;-69
2023/01/11 13:12:18;;;;;;;1.13;1.13;;;9.10;99.90;;;;;;4908616;29;20578;-70
2023/01/11 13:15:02;;;;;;;1.20;1.10;;;9.10;99.90;;;;;;4892430;29;20239;-68
2023/01/11 13:17:37;;;;;;;0.88;0.88;;;9.10;99.90;;;;;;4914808;29;20218;-70
2023/01/11 13:20:26;;;;;;;2.92;1.30;;;9.10;99.90;;;;;;4903772;29;20227;-66
2023/01/11 13:22:58;;;;;;;2.13;2.05;;;9.10;99.90;;;;;;4890541;29;20215;-69
2023/01/11 13:25:28;;;;;;;1.33;1.33;;;9.10;99.90;;;;;;4896708;29;20855;-69
2023/01/11 13:27:59;;;;;;;3.13;1.65;;;9.10;99.90;;;;;;4894597;29;20218;-68
2023/01/11 13:30:27;;;;;;;0.80;0.80;;;9.20;99.90;;;;;;4895495;29;20235;-70
2023/01/11 13:32:57;;;;;;;4.07;2.95;;;9.20;99.90;;;;;;4903476;29;20220;-69
2023/01/11 13:35:34;;;;;;;2.95;2.28;;;9.20;99.90;;;;;;4905099;29;20249;-69
2023/01/11 13:38:10;;;;;;;1.38;1.27;;;9.20;99.90;;;;;;4895075;29;20633;-66
2023/01/11 13:40:43;;;;;;;1.83;1.77;;;9.20;99.90;;;;;;4904795;29;20232;-69
2023/01/11 13:43:18;;;;;;;1.02;1.02;;;9.20;99.90;;;;;;4894594;29;20214;-70
2023/01/11 13:45:50;;;;;;;4.47;4.00;;;9.20;99.90;;;;;;4904064;29;20207;-67
2023/01/11 13:48:24;;;;;;;4.05;3.65;;;9.20;99.90;;;;;;4890376;29;20321;-69
2023/01/11 13:50:56;;;;;;;3.80;2.67;;;9.20;99.90;;;;;;4898785;29;20229;-69
2023/01/11 13:53:29;;;;;;;1.50;1.50;;;9.30;99.90;;;;;;4894583;29;20237;-69
2023/01/11 13:56:01;;;;;;;1.65;1.65;;;9.20;99.90;;;;;;4894865;29;20216;-68
2023/01/11 13:58:35;;;;;;;3.65;3.25;;;9.20;99.90;;;;;;4901903;29;20310;-68
2023/01/11 14:01:09;;;;;;;5.13;2.72;;;9.20;99.90;;;;;;4897973;29;20232;-68
2023/01/11 14:03:43;;;;;;;2.58;2.38;;;9.20;99.90;;;;;;4890833;29;20234;-68
2023/01/11 14:06:31;;;;;;;1.77;1.60;;;9.20;99.90;;;;;;4899423;29;20218;-71
2023/01/11 14:09:09;;;;;;;1.58;1.58;;;9.20;99.90;;;;;;4889818;29;20296;-68
2023/01/11 14:11:46;;;;;;;2.55;2.40;;;9.20;99.90;;;;;;4911721;29;20233;-68
2023/01/11 14:14:37;;;;;;;1.70;1.50;;;9.20;99.90;;;;;;4901272;29;20250;-68
2023/01/11 14:17:26;;;;;;;1.73;1.70;;;9.20;99.90;;;;;;4897940;29;20208;-68
2023/01/11 14:19:59;;;;;;;1.10;1.00;;;9.20;99.90;;;;;;4891588;29;20213;-68
2023/01/11 14:22:32;;;;;;;2.60;2.10;;;9.20;99.90;;;;;;4902356;29;20209;-69
2023/01/11 14:25:04;;;;;;;3.92;3.00;;;9.20;99.90;;;;;;4901375;29;20250;-67
2023/01/11 14:28:00;;;;;;;1.20;1.15;;;9.20;99.90;;;;;;4907530;29;20219;-68
2023/01/11 14:30:40;;;;;;;1.40;1.30;;;9.10;99.90;;;;;;4893474;29;20704;-69
2023/01/11 14:33:40;;;;;;;2.10;2.00;;;9.10;99.90;;;;;;4905487;29;20214;-68
2023/01/11 14:36:30;;;;;;;2.65;2.13;;;9.00;99.90;;;;;;4898886;29;20210;-68
2023/01/11 14:39:26;;;;;;;2.22;2.08;;;9.00;99.90;;;;;;4888387;29;20217;-68
2023/01/11 14:42:05;;;;;;;1.98;1.98;;;9.00;99.90;;;;;;4907284;29;20208;-67
2023/01/11 14:45:01;;;;;;;2.13;1.88;;;8.90;99.90;;;;;;4909019;29;20237;-65
2023/01/11 14:47:53;;;;;;;4.80;2.88;;;8.90;99.90;;;;;;4907325;29;20216;-66
2023/01/11 14:50:32;;;;;;;0.75;0.75;;;8.90;99.90;;;;;;4895720;29;20234;-68
2023/01/11 14:53:00;;;;;;;0.93;0.85;;;8.80;99.90;;;;;;4895107;29;20632;-69
2023/01/11 14:55:31;;;;;;;1.98;1.90;;;8.80;99.90;;;;;;4898141;29;20700;-68
2023/01/11 14:58:04;;;;;;;7.03;2.85;;;8.80;99.90;;;;;;4911981;29;20214;-68
2023/01/11 15:01:03;;;;;;;1.85;1.77;;;8.80;99.90;;;;;;4900079;29;20203;-69
2023/01/11 15:03:47;;;;;;;3.05;2.03;;;8.80;99.90;;;;;;4901410;29;20244;-68
2023/01/11 15:06:17;;;;;;;2.42;2.33;;;8.70;99.90;;;;;;4898800;29;20550;-67
2023/01/11 15:08:47;;;;;;;2.17;1.00;;;8.70;99.90;;;;;;4893243;29;20308;-68
2023/01/11 15:11:33;;;;;;;2.45;2.35;;;8.60;99.90;;;;;;4904237;29;20233;-70
2023/01/11 15:14:03;;;;;;;1.10;1.10;;;8.70;99.90;;;;;;4889722;29;20241;-69
2023/01/11 15:19:28;;;;;;;2.55;1.42;;;8.60;99.90;;;;;;4897709;29;20214;-68
2023/01/11 15:21:57;;;;;;;1.23;1.23;;;8.60;99.90;;;;;;4903717;29;20200;-68
2023/01/11 15:24:27;;;;;;;1.35;0.85;;;8.60;99.90;;;;;;4890023;29;20237;-67
2023/01/11 15:26:55;;;;;;;0.70;0.70;;;8.50;99.90;;;;;;4892592;29;20214;-69
2023/01/11 15:29:25;;;;;;;2.78;1.60;;;8.50;99.90;;;;;;4895205;29;20218;-68
2023/01/11 15:32:13;;;;;;;1.42;1.42;;;8.40;99.90;;;;;;4907848;29;20236;-69
2023/01/11 15:34:44;;;;;;;21.13;3.53;;;8.40;99.90;;;;;;4911223;29;20267;-68
2023/01/11 15:37:37;;;;;;;3.00;2.83;;;8.40;99.90;;;;;;4904720;29;20312;-69
2023/01/11 15:40:15;;;;;;;5.85;2.05;;;8.30;99.90;;;;;;4902175;29;20224;-68
2023/01/11 15:43:35;;;;;;;2.97;2.88;;;8.30;99.90;;;;;;4912730;29;20209;-69
2023/01/11 15:49:47;;;;;;;2.38;2.28;;;8.30;99.90;;;;;;4895849;29;20282;-67
2023/01/11 15:52:49;;;;;;;2.45;2.25;;;8.20;99.90;;;;;;4896618;29;20223;-68
2023/01/11 15:55:38;;;;;;;3.45;3.25;;;8.10;99.90;;;;;;4897371;29;20252;-68
2023/01/11 15:58:30;;;;;;;7.72;2.67;;;8.10;99.90;;;;;;4893032;29;20214;-67
2023/01/11 16:01:20;;;;;;;8.73;2.00;;;8.10;99.90;;;;;;4887175;29;20618;-67
2023/01/11 16:04:03;;;;;;;3.53;3.20;;;8.00;99.90;;;;;;4888858;29;20230;-68
2023/01/11 16:06:40;;;;;;;2.60;2.40;;;8.00;99.90;;;;;;4891408;29;20279;-68
2023/01/11 16:09:33;;;;;;;2.05;1.95;;;8.00;99.90;;;;;;4889254;29;20213;-68
2023/01/11 16:12:22;;;;;;;2.63;2.42;;;8.00;99.90;;;;;;4897332;29;20249;-69
2023/01/11 16:15:16;;;;;;;5.82;4.78;;;7.90;99.90;;;;;;4906645;29;20236;-68
2023/01/11 16:17:46;;;;;;;3.40;2.30;;;7.90;99.90;;;;;;4892383;29;20216;-68
2023/01/11 16:20:21;;;;;;;6.20;2.35;;;7.90;99.90;;;;;;4900155;29;20212;-69
2023/01/11 16:22:52;;;;;;;3.45;2.22;;;7.80;99.90;;;;;;4891979;29;20280;-69
2023/01/11 16:25:23;;;;;;;3.75;3.55;;;7.80;99.90;;;;;;4907251;29;20587;-67
2023/01/11 16:27:53;;;;;;;8.95;3.10;;;7.80;99.90;;;;;;4908839;29;20209;-67
2023/01/11 16:30:20;;;;;;;1.98;1.88;;;7.70;99.90;;;;;;4893576;29;20221;-68
2023/01/11 16:32:47;;;;;;;2.53;2.33;;;7.70;99.90;;;;;;4888808;29;20210;-67
2023/01/11 16:35:19;;;;;;;4.95;4.55;;;7.60;99.90;;;;;;4904721;29;20296;-71
2023/01/11 16:37:50;;;;;;;3.10;2.90;;;7.60;99.90;;;;;;4895907;29;20350;-68
2023/01/11 16:40:24;;;;;;;5.97;3.92;;;7.50;99.90;;;;;;4911331;29;20286;-69
2023/01/11 16:42:55;;;;;;;2.67;2.58;;;7.50;99.90;;;;;;4907309;29;20275;-69
2023/01/11 16:45:23;;;;;;;6.07;3.53;;;7.50;99.90;;;;;;4906276;29;20234;-70
2023/01/11 16:48:04;;;;;;;20.92;10.13;;;7.50;99.90;;;;;;4889589;29;20248;-69
2023/01/11 16:50:31;;;;;;;10.63;5.45;;;7.50;99.90;;;;;;4891051;29;20722;-67
2023/01/11 16:53:00;;;;;;;7.35;6.60;;;7.50;99.90;;;;;;4893265;29;20966;-69
2023/01/11 16:55:35;;;;;;;8.45;5.00;;;7.50;99.90;;;;;;4888007;29;20229;-68
2023/01/11 16:58:05;;;;;;;3.42;3.22;;;7.50;99.90;;;;;;4893022;29;20299;-68
2023/01/11 17:00:36;;;;;;;2.38;2.28;;;7.50;99.90;;;;;;4899468;29;20212;-68
2023/01/11 17:03:25;;;;;;;1.63;1.52;;;7.50;99.90;;;;;;4900827;29;20761;-69
2023/01/11 17:06:14;;;;;;;4.10;3.35;;;7.50;99.90;;;;;;4896305;29;20215;-69
2023/01/11 17:08:43;;;;;;;24.73;3.30;;;7.40;99.90;;;;;;4892547;29;20232;-68
2023/01/11 17:11:25;;;;;;;4.95;4.45;;;7.40;99.90;;;;;;4898776;29;20232;-69
2023/01/11 17:14:25;;;;;;;14.63;7.50;;;7.30;99.90;;;;;;4886081;29;20236;-70
2023/01/11 17:16:56;;;;;;;7.10;3.80;;;7.30;99.90;;;;;;4882252;29;20208;-69
2023/01/11 17:19:26;;;;;;;4.65;2.80;;;7.30;99.90;;;;;;4900258;29;20731;-69
2023/01/11 17:21:54;;;;;;;6.32;2.85;;;7.30;99.90;;;;;;4905926;29;20204;-69
2023/01/11 17:24:24;;;;;;;9.40;2.20;;;7.30;99.90;;;;;;4896433;29;20690;-69
2023/01/11 17:26:56;;;;;;;2.25;2.03;;;7.30;99.90;;;;;;4892248;29;20629;-69
2023/01/11 17:29:28;;;;;;;7.35;3.17;;;7.20;99.90;;;;;;4902358;29;20420;-70
2023/01/11 17:31:56;;;;;;;2.95;2.72;;;7.20;99.90;;;;;;4893991;29;20579;-69
2023/01/11 17:34:26;;;;;;;2.92;2.15;;;7.20;99.90;;;;;;4913932;29;20235;-70
2023/01/11 17:36:54;;;;;;;24.20;4.05;;;7.10;99.90;;;;;;4895383;29;20220;-69
2023/01/11 17:39:26;;;;;;;30.58;3.67;;;7.10;99.90;;;;;;4892960;29;20216;-69
2023/01/11 17:47:26;;;;;;;1.48;1.48;;;7.00;99.90;;;;;;4920961;29;20287;-69
2023/01/11 17:49:55;;;;;;;1.63;1.52;;;7.00;99.90;;;;;;4906640;29;20224;-67
2023/01/11 17:52:24;;;;;;;1.23;1.23;;;7.00;99.90;;;;;;4906677;29;20232;-69
2023/01/11 17:55:02;;;;;;;4.63;1.50;;;7.00;99.90;;;;;;4912518;29;20231;-69
2023/01/11 17:57:30;;;;;;;1.98;1.73;;;7.00;99.90;;;;;;4913476;29;20212;-69
2023/01/11 18:00:18;;;;;;;3.80;2.60;;;7.00;99.90;;;;;;4917778;29;20220;-70
2023/01/11 18:02:46;;;;;;;26.65;1.65;;;7.00;99.90;;;;;;4899279;29;20350;-69
2023/01/11 18:05:16;;;;;;;3.50;3.22;;;7.00;99.90;;;;;;4908859;29;20234;-71
2023/01/11 18:07:45;;;;;;;5.53;3.17;;;7.10;99.90;;;;;;4904995;29;20241;-70
2023/01/11 18:10:18;;;;;;;3.85;2.83;;;7.10;99.90;;;;;;4915839;29;20299;-68
2023/01/11 18:12:47;;;;;;;3.60;3.35;;;7.10;99.90;;;;;;4913735;29;20212;-68
2023/01/11 18:15:29;;;;;;;2.88;2.67;;;7.20;99.90;;;;;;4916346;29;20339;-67
2023/01/11 18:17:56;;;;;;;6.50;5.85;;;7.20;99.90;;;;;;4899884;29;20211;-67
2023/01/11 18:20:44;;;;;;;4.72;3.45;;;7.20;99.90;;;;;;4902754;29;20223;-69
2023/01/11 18:23:19;;;;;;;3.85;3.60;;;7.20;99.90;;;;;;4881556;29;20225;-68
2023/01/11 18:25:47;;;;;;;7.22;3.90;;;7.20;99.90;;;;;;4895990;29;20204;-69
2023/01/11 18:28:26;;;;;;;1.15;1.15;;;7.30;99.90;;;;;;4903917;29;20247;-69
2023/01/11 18:30:55;;;;;;;1.25;1.20;;;7.30;99.90;;;;;;4897133;29;20223;-68
2023/01/11 18:33:24;;;;;;;0.90;0.90;;;7.30;99.90;;;;;;4913251;29;20264;-68
2023/01/11 18:35:53;;;;;;;3.55;1.45;;;7.30;99.90;;;;;;4907500;29;20306;-67
2023/01/11 18:38:22;;;;;;;1.45;1.35;;;7.30;99.90;;;;;;4904808;29;20300;-69
2023/01/11 18:40:51;;;;;;;2.95;2.03;;;7.30;99.90;;;;;;4897113;29;20210;-68
2023/01/11 18:43:24;;;;;;;6.47;2.30;;;7.40;99.90;;;;;;4900792;29;20219;-68
2023/01/11 18:45:51;;;;;;;4.53;2.85;;;7.40;99.90;;;;;;4908459;23;20236;-66
2023/01/11 18:48:18;;;;;;;4.47;1.17;;;7.40;99.90;;;;;;4884917;29;20297;-66
2023/01/11 18:50:46;;;;;;;1.98;1.75;;;7.40;99.90;;;;;;4890124;29;20212;-67
2023/01/11 18:53:15;;;;;;;2.15;1.10;;;7.40;99.90;;;;;;4889421;29;20210;-66